createdAt,value
2019-05-22T00:01:20.370Z,14.32
2019-05-22T00:03:54.008Z,14.32
2019-05-22T00:06:27.148Z,14.08
2019-05-22T00:08:58.572Z,14.30
2019-05-22T00:11:29.376Z,14.39
2019-05-22T00:13:59.633Z,14.36
2019-05-22T00:16:28.305Z,14.37
2019-05-22T00:18:57.291Z,14.01
2019-05-22T00:21:25.737Z,14.31
2019-05-22T00:23:54.943Z,14.33
2019-05-22T00:26:23.398Z,14.16
2019-05-22T00:28:54.068Z,14.20
2019-05-22T00:31:30.167Z,14.14
2019-05-22T00:34:00.250Z,14.19
2019-05-22T00:36:30.027Z,13.91
2019-05-22T00:38:58.492Z,14.06
2019-05-22T00:41:28.580Z,13.97
2019-05-22T00:43:58.186Z,14.18
2019-05-22T00:46:28.387Z,14.13
2019-05-22T00:48:57.653Z,14.15
2019-05-22T00:51:27.423Z,14.13
2019-05-22T00:54:00.939Z,14.36
2019-05-22T00:56:31.673Z,14.29
2019-05-22T00:59:04.899Z,14.44
2019-05-22T01:01:54.157Z,14.28
2019-05-22T01:04:24.345Z,14.04
2019-05-22T01:06:54.866Z,13.80
2019-05-22T01:09:30.912Z,13.91
2019-05-22T01:12:00.619Z,14.11
2019-05-22T01:14:42.602Z,14.40
2019-05-22T01:17:04.791Z,14.39
2019-05-22T01:19:34.236Z,14.08
2019-05-22T01:22:04.734Z,14.11
2019-05-22T01:24:34.918Z,13.79
2019-05-22T01:27:04.554Z,13.69
2019-05-22T01:29:34.293Z,13.84
2019-05-22T01:32:07.032Z,14.03
2019-05-22T01:34:37.273Z,13.98
2019-05-22T01:37:07.893Z,13.60
2019-05-22T01:39:47.049Z,13.63
2019-05-22T01:42:18.567Z,13.87
2019-05-22T01:45:00.410Z,13.54
2019-05-22T01:47:26.920Z,13.47
2019-05-22T01:49:56.326Z,13.52
2019-05-22T01:52:27.098Z,13.50
2019-05-22T01:54:57.582Z,13.67
2019-05-22T01:57:27.515Z,13.51
2019-05-22T01:59:57.123Z,13.52
2019-05-22T02:02:26.093Z,13.44
2019-05-22T02:04:54.548Z,13.49
2019-05-22T02:07:24.341Z,13.65
2019-05-22T02:09:54.694Z,13.24
2019-05-22T02:12:27.794Z,13.36
2019-05-22T02:14:59.299Z,13.35
2019-05-22T02:17:33.838Z,13.19
2019-05-22T02:20:04.623Z,13.41
2019-05-22T02:22:34.110Z,13.28
2019-05-22T02:25:10.007Z,13.50
2019-05-22T02:27:39.876Z,13.71
2019-05-22T02:30:10.458Z,13.42
2019-05-22T02:32:41.079Z,13.47
2019-05-22T02:35:11.311Z,13.27
2019-05-22T02:37:41.604Z,13.26
2019-05-22T02:40:19.500Z,13.29
2019-05-22T02:42:49.715Z,13.25
2019-05-22T02:45:18.396Z,13.28
2019-05-22T02:47:48.839Z,13.19
2019-05-22T02:50:18.387Z,13.31
2019-05-22T02:52:47.873Z,13.40
2019-05-22T02:55:16.858Z,13.73
2019-05-22T02:57:46.564Z,13.67
2019-05-22T03:00:16.729Z,13.64
2019-05-22T03:02:55.741Z,13.86
2019-05-22T03:05:28.036Z,13.70
2019-05-22T03:07:58.163Z,13.63
2019-05-22T03:10:28.613Z,13.76
2019-05-22T03:12:58.415Z,13.82
2019-05-22T03:15:28.603Z,13.76
2019-05-22T03:18:01.791Z,13.65
2019-05-22T03:20:33.196Z,13.81
2019-05-22T03:23:33.531Z,13.70
2019-05-22T03:26:02.343Z,13.51
2019-05-22T03:28:31.813Z,13.62
2019-05-22T03:31:00.524Z,13.22
2019-05-22T03:33:29.512Z,13.18
2019-05-22T03:36:09.566Z,13.50
2019-05-22T03:38:40.215Z,13.64
2019-05-22T03:41:10.976Z,13.35
2019-05-22T03:43:44.037Z,13.45
2019-05-22T03:46:21.666Z,13.69
2019-05-22T03:48:50.114Z,13.61
2019-05-22T03:51:19.138Z,13.70
2019-05-22T03:53:48.449Z,13.39
2019-05-22T03:56:17.461Z,13.53
2019-05-22T03:58:47.114Z,13.62
2019-05-22T04:01:15.641Z,13.38
2019-05-22T04:03:45.793Z,13.17
2019-05-22T04:06:16.248Z,13.42
2019-05-22T04:08:45.622Z,13.63
2019-05-22T04:11:14.810Z,13.60
2019-05-22T04:13:43.400Z,13.51
2019-05-22T04:16:13.773Z,13.60
2019-05-22T04:18:43.366Z,13.78
2019-05-22T04:21:11.985Z,13.64
2019-05-22T04:23:40.534Z,13.56
2019-05-22T04:26:11.223Z,13.74
2019-05-22T04:28:52.603Z,13.76
2019-05-22T04:31:33.290Z,13.74
2019-05-22T04:34:01.799Z,13.78
2019-05-22T04:36:30.570Z,13.77
2019-05-22T04:39:08.567Z,13.83
2019-05-22T04:41:37.398Z,13.82
2019-05-22T04:44:06.869Z,13.87
2019-05-22T04:46:35.959Z,13.93
2019-05-22T04:49:05.815Z,13.87
2019-05-22T04:51:34.996Z,13.88
2019-05-22T04:54:03.616Z,13.78
2019-05-22T04:56:32.391Z,13.74
2019-05-22T04:59:02.045Z,13.95
2019-05-22T05:01:31.003Z,13.87
2019-05-22T05:04:00.052Z,13.66
2019-05-22T05:06:31.238Z,13.52
2019-05-22T05:09:00.310Z,13.48
2019-05-22T05:11:31.678Z,13.85
2019-05-22T05:14:01.626Z,13.92
2019-05-22T05:16:32.919Z,13.91
2019-05-22T05:19:20.005Z,13.93
2019-05-22T05:21:48.503Z,13.94
2019-05-22T05:24:16.932Z,13.87
2019-05-22T05:26:45.429Z,13.64
2019-05-22T05:29:25.312Z,13.77
2019-05-22T05:31:54.048Z,13.74
2019-05-22T05:34:34.213Z,13.98
2019-05-22T05:37:03.262Z,14.14
2019-05-22T05:39:49.701Z,14.18
2019-05-22T05:42:19.672Z,13.98
2019-05-22T05:44:49.219Z,14.16
2019-05-22T05:47:18.904Z,14.25
2019-05-22T05:49:49.210Z,14.06
2019-05-22T05:52:17.645Z,14.35
2019-05-22T05:54:47.850Z,14.07
2019-05-22T05:57:40.766Z,14.23
2019-05-22T06:00:35.875Z,14.31
2019-05-22T06:03:05.097Z,14.28
2019-05-22T06:05:34.725Z,14.50
2019-05-22T06:08:03.205Z,14.59
2019-05-22T06:11:15.191Z,14.46
2019-05-22T06:13:43.648Z,14.69
2019-05-22T06:16:22.693Z,14.30
2019-05-22T06:18:53.009Z,14.36
2019-05-22T06:21:24.361Z,14.63
2019-05-22T06:24:23.790Z,14.53
2019-05-22T06:27:02.429Z,14.51
2019-05-22T06:29:34.632Z,14.64
2019-05-22T06:32:07.776Z,14.26
2019-05-22T06:34:37.078Z,14.32
2019-05-22T06:37:31.314Z,14.13
2019-05-22T06:40:01.405Z,14.56
2019-05-22T06:42:30.102Z,14.32
2019-05-22T06:44:58.552Z,14.06
2019-05-22T06:47:28.728Z,14.33
2019-05-22T06:49:57.819Z,14.50
2019-05-22T06:52:27.114Z,14.36
2019-05-22T06:54:56.676Z,14.22
2019-05-22T06:57:26.652Z,14.43
2019-05-22T07:00:12.441Z,14.28
2019-05-22T07:02:26.024Z,14.41
2019-05-22T07:04:54.608Z,14.11
2019-05-22T07:07:24.688Z,14.35
2019-05-22T07:09:53.436Z,14.20
2019-05-22T07:12:23.525Z,14.30
2019-05-22T07:15:11.232Z,14.72
2019-05-22T07:17:39.769Z,14.62
2019-05-22T07:20:08.941Z,14.79
2019-05-22T07:22:37.528Z,14.78
2019-05-22T07:25:08.802Z,15.09
2019-05-22T07:27:37.670Z,15.34
2019-05-22T07:30:09.038Z,15.12
2019-05-22T07:32:38.131Z,14.84
2019-05-22T07:35:07.855Z,15.05
2019-05-22T07:37:45.167Z,15.14
2019-05-22T07:40:14.167Z,15.36
2019-05-22T07:42:42.643Z,15.68
2019-05-22T07:45:12.528Z,15.76
2019-05-22T07:47:42.561Z,15.96
2019-05-22T07:50:12.547Z,15.88
2019-05-22T07:52:41.241Z,15.74
2019-05-22T07:55:09.922Z,16.04
2019-05-22T07:57:41.206Z,16.02
2019-05-22T08:00:10.432Z,16.37
2019-05-22T08:02:42.130Z,16.45
2019-05-22T08:05:11.114Z,16.82
2019-05-22T08:07:41.329Z,16.77
2019-05-22T08:10:13.954Z,16.70
2019-05-22T08:12:44.017Z,16.65
2019-05-22T08:15:13.166Z,16.43
2019-05-22T08:17:48.008Z,16.25
2019-05-22T08:20:16.861Z,16.36
2019-05-22T08:22:47.537Z,16.88
2019-05-22T08:25:17.075Z,17.00
2019-05-22T08:27:48.097Z,16.53
2019-05-22T08:30:17.078Z,16.31
2019-05-22T08:32:45.694Z,16.24
2019-05-22T08:35:14.174Z,16.74
2019-05-22T08:37:42.997Z,16.80
2019-05-22T08:40:13.928Z,17.02
2019-05-22T08:42:42.518Z,17.22
2019-05-22T08:45:13.539Z,17.57
2019-05-22T08:47:42.122Z,17.99
2019-05-22T08:50:15.914Z,18.16
2019-05-22T08:52:51.301Z,18.25
2019-05-22T08:55:20.050Z,17.90
2019-05-22T08:57:49.785Z,17.98
2019-05-22T09:00:21.247Z,18.36
2019-05-22T09:02:50.899Z,18.19
2019-05-22T09:05:21.441Z,17.88
2019-05-22T09:07:49.869Z,17.76
2019-05-22T09:10:19.215Z,17.78
2019-05-22T09:12:47.721Z,17.39
2019-05-22T09:15:16.800Z,17.25
2019-05-22T09:17:45.245Z,17.59
2019-05-22T09:20:19.235Z,17.57
2019-05-22T09:22:48.006Z,17.85
2019-05-22T09:25:17.222Z,18.13
2019-05-22T09:27:47.446Z,17.96
2019-05-22T09:30:17.454Z,17.70
2019-05-22T09:32:47.716Z,18.18
2019-05-22T09:35:16.372Z,18.18
2019-05-22T09:37:44.916Z,18.70
2019-05-22T09:40:13.590Z,18.84
2019-05-22T09:42:42.390Z,18.57
2019-05-22T09:45:11.512Z,18.95
2019-05-22T09:47:40.777Z,18.68
2019-05-22T09:50:11.175Z,18.77
2019-05-22T09:52:56.369Z,18.34
2019-05-22T09:55:13.128Z,18.26
2019-05-22T09:57:41.663Z,18.51
2019-05-22T10:00:11.880Z,19.33
2019-05-22T10:02:40.744Z,19.78
2019-05-22T10:05:10.686Z,19.95
2019-05-22T10:07:57.118Z,20.28
2019-05-22T10:10:11.078Z,19.77
2019-05-22T10:12:39.574Z,20.01
2019-05-22T10:15:11.315Z,20.11
2019-05-22T10:17:47.216Z,20.31
2019-05-22T10:20:15.921Z,20.33
2019-05-22T10:22:44.486Z,20.54
2019-05-22T10:25:16.216Z,20.66
2019-05-22T10:27:43.798Z,20.79
2019-05-22T10:30:16.599Z,20.73
2019-05-22T10:32:44.984Z,19.99
2019-05-22T10:35:14.823Z,20.28
2019-05-22T10:37:43.347Z,20.48
2019-05-22T10:40:13.488Z,20.51
2019-05-22T10:42:44.994Z,20.74
2019-05-22T10:45:14.370Z,20.94
2019-05-22T10:47:45.276Z,21.60
2019-05-22T10:50:15.586Z,22.09
2019-05-22T10:52:44.019Z,21.42
2019-05-22T10:55:13.624Z,21.84
2019-05-22T10:57:43.649Z,23.51
2019-05-22T11:00:15.280Z,24.53
2019-05-22T11:02:44.156Z,23.85
2019-05-22T11:05:13.409Z,25.07
2019-05-22T11:07:42.868Z,26.93
2019-05-22T11:10:12.127Z,28.03
2019-05-22T11:12:40.885Z,28.55
2019-05-22T11:15:10.146Z,28.17
2019-05-22T11:17:39.670Z,28.14
2019-05-22T11:20:10.018Z,29.32
2019-05-22T11:22:38.604Z,28.77
2019-05-22T11:25:08.854Z,29.12
2019-05-22T11:27:37.439Z,29.03
2019-05-22T11:30:07.423Z,28.98
2019-05-22T11:32:36.085Z,29.73
2019-05-22T11:35:07.676Z,29.26
2019-05-22T11:37:37.126Z,28.96
2019-05-22T11:40:08.052Z,27.43
2019-05-22T11:42:38.033Z,28.31
2019-05-22T11:45:10.173Z,29.14
2019-05-22T11:47:39.269Z,30.00
2019-05-22T11:50:11.631Z,28.38
2019-05-22T11:52:40.143Z,28.39
2019-05-22T11:55:09.211Z,29.08
2019-05-22T11:57:38.952Z,30.16
2019-05-22T12:00:09.289Z,30.46
2019-05-22T12:02:39.443Z,29.71
2019-05-22T12:05:10.631Z,29.61
2019-05-22T12:07:41.259Z,28.29
2019-05-22T12:10:11.628Z,28.21
2019-05-22T12:12:52.635Z,29.53
2019-05-22T12:15:25.070Z,28.57
2019-05-22T12:17:54.123Z,29.16
2019-05-22T12:20:25.213Z,27.26
2019-05-22T12:22:53.715Z,26.73
2019-05-22T12:25:22.914Z,25.97
2019-05-22T12:27:51.711Z,25.89
2019-05-22T12:30:21.248Z,24.90
2019-05-22T12:32:50.158Z,24.11
2019-05-22T12:35:19.450Z,23.79
2019-05-22T12:37:47.863Z,24.15
2019-05-22T12:40:19.102Z,24.57
2019-05-22T12:42:48.973Z,25.50
2019-05-22T12:45:19.479Z,26.44
2019-05-22T12:47:47.974Z,27.09
2019-05-22T12:50:19.224Z,25.64
2019-05-22T12:52:50.585Z,26.39
2019-05-22T12:55:20.916Z,26.68
2019-05-22T12:57:50.785Z,26.06
2019-05-22T13:00:23.751Z,26.63
2019-05-22T13:02:54.998Z,25.89
2019-05-22T13:05:23.844Z,25.14
2019-05-22T13:07:53.008Z,23.92
2019-05-22T13:10:22.258Z,23.94
2019-05-22T13:12:51.612Z,23.60
2019-05-22T13:15:23.004Z,23.42
2019-05-22T13:17:54.150Z,23.29
2019-05-22T13:20:41.138Z,23.36
2019-05-22T13:22:58.478Z,23.27
2019-05-22T13:25:31.136Z,23.15
2019-05-22T13:28:02.345Z,22.72
2019-05-22T13:30:32.562Z,22.42
2019-05-22T13:33:01.074Z,21.63
2019-05-22T13:35:30.853Z,22.31
2019-05-22T13:37:59.482Z,22.87
2019-05-22T13:40:28.915Z,22.90
2019-05-22T13:42:59.387Z,23.29
2019-05-22T13:45:30.167Z,24.55
2019-05-22T13:47:59.126Z,24.78
2019-05-22T13:50:29.202Z,25.39
2019-05-22T13:53:00.671Z,24.03
2019-05-22T13:55:30.160Z,24.45
2019-05-22T13:57:59.894Z,25.02
2019-05-22T14:00:28.791Z,24.65
2019-05-22T14:02:58.001Z,24.79
2019-05-22T14:05:28.166Z,24.18
2019-05-22T14:07:56.793Z,24.14
2019-05-22T14:10:28.060Z,23.99
2019-05-22T14:12:57.249Z,23.49
2019-05-22T14:15:26.346Z,23.23
2019-05-22T14:17:55.696Z,23.54
2019-05-22T14:20:25.180Z,23.66
2019-05-22T14:22:53.861Z,24.32
2019-05-22T14:25:23.831Z,24.70
2019-05-22T14:27:52.514Z,24.61
2019-05-22T14:30:26.697Z,24.17
2019-05-22T14:32:57.580Z,23.78
2019-05-22T14:35:46.557Z,23.75
2019-05-22T14:37:58.906Z,23.90
2019-05-22T14:40:28.921Z,23.61
2019-05-22T14:42:57.847Z,23.60
2019-05-22T14:45:26.300Z,23.25
2019-05-22T14:47:54.901Z,23.24
2019-05-22T14:50:24.637Z,23.34
2019-05-22T14:52:53.842Z,23.13
2019-05-22T14:55:22.416Z,23.21
2019-05-22T14:57:51.623Z,23.14
2019-05-22T15:00:22.512Z,23.48
2019-05-22T15:02:56.302Z,23.66
2019-05-22T15:05:23.539Z,23.86
2019-05-22T15:07:52.328Z,23.60
2019-05-22T15:10:21.854Z,23.47
2019-05-22T15:12:50.929Z,23.91
2019-05-22T15:15:20.202Z,24.46
2019-05-22T15:17:48.898Z,24.73
2019-05-22T15:20:21.368Z,24.46
2019-05-22T15:22:49.974Z,24.89
2019-05-22T15:25:19.006Z,25.46
2019-05-22T15:27:47.439Z,25.53
2019-05-22T15:30:16.808Z,25.27
2019-05-22T15:32:45.506Z,24.97
2019-05-22T15:35:14.559Z,25.51
2019-05-22T15:37:43.533Z,25.74
2019-05-22T15:40:13.697Z,25.18
2019-05-22T15:42:45.053Z,25.14
2019-05-22T15:45:18.110Z,25.44
2019-05-22T15:47:55.528Z,25.85
2019-05-22T15:50:21.160Z,25.30
2019-05-22T15:53:07.605Z,25.60
2019-05-22T15:55:36.682Z,25.05
2019-05-22T15:58:06.440Z,24.76
2019-05-22T16:00:37.612Z,24.80
2019-05-22T16:03:13.697Z,24.63
2019-05-22T16:05:43.679Z,24.36
2019-05-22T16:08:16.553Z,24.57
2019-05-22T16:10:48.298Z,24.75
2019-05-22T16:13:20.510Z,24.62
2019-05-22T16:15:53.424Z,24.45
2019-05-22T16:18:32.333Z,24.28
2019-05-22T16:21:03.806Z,24.05
2019-05-22T16:23:34.437Z,23.62
2019-05-22T16:26:05.529Z,23.40
2019-05-22T16:28:40.912Z,23.44
2019-05-22T16:31:11.924Z,23.50
2019-05-22T16:33:43.169Z,23.57
2019-05-22T16:36:13.244Z,23.82
2019-05-22T16:38:44.354Z,23.97
2019-05-22T16:41:13.191Z,24.27
2019-05-22T16:43:49.754Z,24.51
2019-05-22T16:46:16.838Z,24.55
2019-05-22T16:48:48.212Z,24.58
2019-05-22T16:51:18.433Z,24.51
2019-05-22T16:53:53.295Z,24.49
2019-05-22T16:56:23.577Z,24.54
2019-05-22T16:58:52.607Z,24.81
2019-05-22T17:01:22.727Z,24.65
2019-05-22T17:03:53.956Z,24.46
2019-05-22T17:06:24.285Z,24.59
2019-05-22T17:08:56.038Z,24.65
2019-05-22T17:11:25.634Z,24.48
2019-05-22T17:13:58.712Z,24.20
2019-05-22T17:16:29.577Z,24.31
2019-05-22T17:19:23.690Z,24.07
2019-05-22T17:21:35.766Z,23.95
2019-05-22T17:24:05.714Z,23.82
2019-05-22T17:26:36.351Z,23.88
2019-05-22T17:29:07.723Z,23.55
2019-05-22T17:31:37.486Z,23.36
2019-05-22T17:34:08.400Z,23.19
2019-05-22T17:36:37.930Z,23.04
2019-05-22T17:39:11.176Z,22.79
2019-05-22T17:41:42.445Z,22.82
2019-05-22T17:44:12.230Z,22.78
2019-05-22T17:46:44.590Z,22.85
2019-05-22T17:49:16.762Z,22.92
2019-05-22T17:51:45.445Z,22.76
2019-05-22T17:54:14.128Z,22.89
2019-05-22T17:56:42.866Z,23.00
2019-05-22T17:59:11.287Z,23.05
2019-05-22T18:01:40.337Z,22.96
2019-05-22T18:04:09.191Z,22.87
2019-05-22T18:06:37.778Z,22.72
2019-05-22T18:09:10.785Z,22.82
2019-05-22T18:11:40.823Z,22.70
2019-05-22T18:14:11.567Z,22.72
2019-05-22T18:16:40.170Z,22.67
2019-05-22T18:19:11.938Z,22.68
2019-05-22T18:21:41.237Z,22.78
2019-05-22T18:24:09.740Z,22.70
2019-05-22T18:26:38.329Z,22.73
2019-05-22T18:29:06.759Z,22.67
2019-05-22T18:31:35.195Z,22.60
2019-05-22T18:34:03.697Z,22.60
2019-05-22T18:36:32.148Z,22.56
2019-05-22T18:39:00.570Z,22.52
2019-05-22T18:41:29.195Z,22.31
2019-05-22T18:43:59.165Z,22.11
2019-05-22T18:46:27.641Z,22.10
2019-05-22T18:48:56.079Z,22.10
2019-05-22T18:51:24.807Z,21.70
2019-05-22T18:53:53.751Z,21.79
2019-05-22T18:56:22.294Z,21.72
2019-05-22T18:58:51.074Z,21.61
2019-05-22T19:01:19.721Z,21.52
2019-05-22T19:03:48.295Z,21.42
2019-05-22T19:06:29.695Z,21.12
2019-05-22T19:08:47.844Z,21.16
2019-05-22T19:11:16.323Z,21.10
2019-05-22T19:13:44.757Z,21.14
2019-05-22T19:16:14.848Z,20.99
2019-05-22T19:18:43.358Z,21.08
2019-05-22T19:21:12.050Z,21.23
2019-05-22T19:23:40.761Z,21.36
2019-05-22T19:26:09.260Z,21.31
2019-05-22T19:28:43.373Z,21.36
2019-05-22T19:31:08.020Z,21.43
2019-05-22T19:33:36.704Z,21.42
2019-05-22T19:36:05.660Z,21.48
2019-05-22T19:38:36.179Z,21.43
2019-05-22T19:41:05.097Z,21.36
2019-05-22T19:43:35.035Z,21.35
2019-05-22T19:46:04.998Z,21.33
2019-05-22T19:48:33.922Z,21.31
2019-05-22T19:51:04.256Z,21.17
2019-05-22T19:53:32.994Z,21.13
2019-05-22T19:56:01.486Z,20.87
2019-05-22T19:58:30.385Z,20.79
2019-05-22T20:01:01.913Z,20.60
2019-05-22T20:03:30.500Z,20.51
2019-05-22T20:05:59.107Z,20.41
2019-05-22T20:08:36.323Z,20.23
2019-05-22T20:11:04.188Z,20.33
2019-05-22T20:13:33.617Z,20.26
2019-05-22T20:16:02.613Z,20.28
2019-05-22T20:18:32.102Z,20.34
2019-05-22T20:21:00.534Z,20.23
2019-05-22T20:23:35.954Z,20.05
2019-05-22T20:26:01.000Z,19.98
2019-05-22T20:28:29.561Z,19.86
2019-05-22T20:30:58.203Z,19.94
2019-05-22T20:33:27.171Z,19.93
2019-05-22T20:35:56.606Z,19.78
2019-05-22T20:38:25.494Z,19.67
2019-05-22T20:40:54.086Z,19.54
2019-05-22T20:43:22.782Z,19.47
2019-05-22T20:45:53.444Z,19.41
2019-05-22T20:48:27.114Z,19.40
2019-05-22T20:50:59.669Z,19.42
2019-05-22T20:53:30.327Z,19.51
2019-05-22T20:55:59.764Z,19.58
2019-05-22T20:58:32.370Z,19.56
2019-05-22T21:01:00.980Z,19.43
2019-05-22T21:03:31.744Z,19.27
2019-05-22T21:06:01.085Z,19.15
2019-05-22T21:08:30.801Z,18.96
2019-05-22T21:11:00.768Z,18.69
2019-05-22T21:13:31.564Z,18.62
2019-05-22T21:16:01.017Z,18.57
2019-05-22T21:18:35.438Z,18.45
2019-05-22T21:21:05.670Z,18.47
2019-05-22T21:23:35.751Z,18.59
2019-05-22T21:26:04.338Z,18.67
2019-05-22T21:28:32.789Z,18.73
2019-05-22T21:31:02.441Z,18.69
2019-05-22T21:33:31.824Z,18.65
2019-05-22T21:36:00.786Z,18.69
2019-05-22T21:38:30.381Z,18.65
2019-05-22T21:40:59.491Z,18.56
2019-05-22T21:43:28.418Z,18.45
2019-05-22T21:45:57.551Z,18.40
2019-05-22T21:48:26.792Z,18.31
2019-05-22T21:50:55.796Z,18.23
2019-05-22T21:53:25.088Z,18.23
2019-05-22T21:56:04.053Z,18.21
2019-05-22T21:58:24.343Z,18.25
2019-05-22T22:00:57.710Z,18.27
2019-05-22T22:03:45.219Z,18.32
2019-05-22T22:06:15.472Z,18.21
2019-05-22T22:08:44.289Z,18.17
2019-05-22T22:11:13.174Z,18.03
2019-05-22T22:13:43.433Z,17.94
2019-05-22T22:16:11.945Z,17.92
2019-05-22T22:18:41.266Z,17.90
2019-05-22T22:21:11.269Z,17.83
2019-05-22T22:23:39.790Z,17.83
2019-05-22T22:26:24.662Z,17.74
2019-05-22T22:28:40.286Z,17.69
2019-05-22T22:31:20.290Z,17.56
2019-05-22T22:33:52.248Z,17.49
2019-05-22T22:36:20.770Z,17.51
2019-05-22T22:38:54.138Z,17.36
2019-05-22T22:41:22.580Z,17.32
2019-05-22T22:43:52.845Z,17.30
2019-05-22T22:46:46.594Z,17.14
2019-05-22T22:49:17.253Z,17.16
2019-05-22T22:51:47.408Z,17.11
2019-05-22T22:54:16.646Z,16.96
2019-05-22T22:56:45.590Z,16.93
2019-05-22T22:59:15.258Z,16.92
2019-05-22T23:01:47.005Z,16.89
2019-05-22T23:04:16.476Z,16.84
2019-05-22T23:06:46.132Z,16.80
2019-05-22T23:09:15.328Z,16.75
2019-05-22T23:11:45.471Z,16.74
2019-05-22T23:14:15.552Z,16.79
2019-05-22T23:16:44.263Z,16.80
2019-05-22T23:19:17.143Z,16.58
2019-05-22T23:21:45.529Z,16.36
2019-05-22T23:24:14.469Z,16.32
2019-05-22T23:26:43.535Z,16.37
2019-05-22T23:29:12.743Z,16.48
2019-05-22T23:31:41.259Z,16.40
2019-05-22T23:34:09.929Z,16.34
2019-05-22T23:36:39.067Z,16.24
2019-05-22T23:39:12.869Z,16.07
2019-05-22T23:41:42.182Z,15.92
2019-05-22T23:44:12.360Z,15.94
2019-05-22T23:46:42.922Z,15.85
2019-05-22T23:49:12.589Z,15.83
2019-05-22T23:51:41.290Z,15.93
2019-05-22T23:54:10.909Z,16.03
2019-05-22T23:56:39.865Z,16.09
2019-05-22T23:59:08.343Z,16.17
